sensor_id;sensor_type;location;lat;lon;timestamp;pressure;altitude;pressure_sealevel;temperature;humidity
54439;BME280;40347;53.848;27.498;2023-05-16T00:01:19;1009.3;;;18.2;44.7
54439;BME280;40347;53.848;27.498;2023-05-16T00:06:19;1009.2;;;18.2;44.5
54439;BME280;40347;53.848;27.498;2023-05-16T00:11:19;1009.2;;;18.1;44.6
54439;BME280;40347;53.848;27.498;2023-05-16T00:16:19;1009.2;;;18.1;44.8
54439;BME280;40347;53.848;27.498;2023-05-16T00:21:19;1009.2;;;18.1;45
54439;BME280;40347;53.848;27.498;2023-05-16T00:26:31;1009.2;;;18.1;44.7
54439;BME280;40347;53.848;27.498;2023-05-16T00:31:19;1009.2;;;18;45
54439;BME280;40347;53.848;27.498;2023-05-16T00:36:19;1009.2;;;18;45
54439;BME280;40347;53.848;27.498;2023-05-16T00:41:33;1009.1;;;18;45.1
54439;BME280;40347;53.848;27.498;2023-05-16T00:46:37;1009.1;;;17.9;45.3
54439;BME280;40347;53.848;27.498;2023-05-16T00:51:51;1009.1;;;17.8;45.6
54439;BME280;40347;53.848;27.498;2023-05-16T00:56:29;1009.1;;;17.8;45.9
54439;BME280;40347;53.848;27.498;2023-05-16T01:01:19;1009;;;17.8;45.7
54439;BME280;40347;53.848;27.498;2023-05-16T01:06:19;1009;;;17.8;45.6
54439;BME280;40347;53.848;27.498;2023-05-16T01:11:46;1009;;;17.7;46
54439;BME280;40347;53.848;27.498;2023-05-16T01:16:20;1009;;;17.6;46.4
54439;BME280;40347;53.848;27.498;2023-05-16T01:21:22;1009;;;17.6;46.2
54439;BME280;40347;53.848;27.498;2023-05-16T01:26:33;1009;;;17.6;46.2
54439;BME280;40347;53.848;27.498;2023-05-16T01:31:19;1008.9;;;17.5;46.9
54439;BME280;40347;53.848;27.498;2023-05-16T01:36:30;1008.8;;;17.5;47.4
54439;BME280;40347;53.848;27.498;2023-05-16T01:41:20;1009.1;;;17.4;48.2
54439;BME280;40347;53.848;27.498;2023-05-16T01:46:20;1009;;;17.3;48.4
54439;BME280;40347;53.848;27.498;2023-05-16T01:51:44;1008.9;;;17.3;49.3
54439;BME280;40347;53.848;27.498;2023-05-16T01:56:46;1008.9;;;17.3;49.1
54439;BME280;40347;53.848;27.498;2023-05-16T02:01:31;1009.1;;;17.2;49.5
54439;BME280;40347;53.848;27.498;2023-05-16T02:06:43;1009.1;;;17.2;49.2
54439;BME280;40347;53.848;27.498;2023-05-16T02:11:43;1009;;;17.2;49.2
54439;BME280;40347;53.848;27.498;2023-05-16T02:16:19;1009;;;17.1;49.8
54439;BME280;40347;53.848;27.498;2023-05-16T02:21:41;1009.1;;;17.1;49.8
54439;BME280;40347;53.848;27.498;2023-05-16T02:26:31;1009.1;;;17.2;49.6
54439;BME280;40347;53.848;27.498;2023-05-16T02:31:39;1009.1;;;17.1;50.3
54439;BME280;40347;53.848;27.498;2023-05-16T02:36:19;1009;;;17;51
54439;BME280;40347;53.848;27.498;2023-05-16T02:41:31;1009;;;16.9;51.1
54439;BME280;40347;53.848;27.498;2023-05-16T02:46:26;1009;;;16.9;51.3
54439;BME280;40347;53.848;27.498;2023-05-16T02:51:33;1008.9;;;16.8;51.4
54439;BME280;40347;53.848;27.498;2023-05-16T02:56:31;1008.8;;;16.9;51
54439;BME280;40347;53.848;27.498;2023-05-16T03:01:25;1008.7;;;16.8;51.9
54439;BME280;40347;53.848;27.498;2023-05-16T03:06:33;1008.7;;;16.7;53.1
54439;BME280;40347;53.848;27.498;2023-05-16T03:11:19;1008.7;;;16.7;53.2
54439;BME280;40347;53.848;27.498;2023-05-16T03:16:29;1008.6;;;16.7;52.4
54439;BME280;40347;53.848;27.498;2023-05-16T03:21:33;1008.6;;;16.7;52
54439;BME280;40347;53.848;27.498;2023-05-16T03:26:31;1008.6;;;16.8;51.6
54439;BME280;40347;53.848;27.498;2023-05-16T03:31:29;1008.6;;;16.8;51.1
54439;BME280;40347;53.848;27.498;2023-05-16T03:36:20;1008.6;;;16.8;50.9
54439;BME280;40347;53.848;27.498;2023-05-16T03:41:19;1008.7;;;16.8;50.7
54439;BME280;40347;53.848;27.498;2023-05-16T03:46:29;1008.7;;;16.9;50.3
54439;BME280;40347;53.848;27.498;2023-05-16T03:51:19;1008.7;;;16.9;50.5
54439;BME280;40347;53.848;27.498;2023-05-16T03:56:19;1008.6;;;16.9;50
54439;BME280;40347;53.848;27.498;2023-05-16T04:01:19;1008.6;;;16.9;50.4
54439;BME280;40347;53.848;27.498;2023-05-16T04:06:31;1008.8;;;16.9;50.8
54439;BME280;40347;53.848;27.498;2023-05-16T04:11:25;1008.8;;;16.9;51.4
54439;BME280;40347;53.848;27.498;2023-05-16T04:16:29;1008.8;;;16.9;52.3
54439;BME280;40347;53.848;27.498;2023-05-16T04:21:57;1008.9;;;17;52.6
54439;BME280;40347;53.848;27.498;2023-05-16T04:26:25;1008.9;;;17.1;52.3
54439;BME280;40347;53.848;27.498;2023-05-16T04:31:19;1008.9;;;17.1;52.7
54439;BME280;40347;53.848;27.498;2023-05-16T04:36:41;1008.9;;;17.3;52.6
54439;BME280;40347;53.848;27.498;2023-05-16T04:41:29;1008.9;;;17.5;52
54439;BME280;40347;53.848;27.498;2023-05-16T04:46:45;1008.9;;;17.6;51.4
54439;BME280;40347;53.848;27.498;2023-05-16T04:51:37;1009;;;17.6;51.3
54439;BME280;40347;53.848;27.498;2023-05-16T04:56:43;1009;;;17.7;51.3
54439;BME280;40347;53.848;27.498;2023-05-16T05:01:31;1009;;;17.8;51.5
54439;BME280;40347;53.848;27.498;2023-05-16T05:06:25;1009;;;17.9;52.2
54439;BME280;40347;53.848;27.498;2023-05-16T05:11:19;1009;;;18.1;51.7
54439;BME280;40347;53.848;27.498;2023-05-16T05:16:43;1009;;;18.3;51.6
54439;BME280;40347;53.848;27.498;2023-05-16T05:21:31;1009;;;18.6;50.8
54439;BME280;40347;53.848;27.498;2023-05-16T05:26:19;1009;;;18.7;50.4
54439;BME280;40347;53.848;27.498;2023-05-16T05:31:19;1009;;;18.5;50.7
54439;BME280;40347;53.848;27.498;2023-05-16T05:36:19;1008.9;;;18.3;51.4
54439;BME280;40347;53.848;27.498;2023-05-16T05:41:29;1009;;;18.3;51.4
54439;BME280;40347;53.848;27.498;2023-05-16T05:46:19;1009;;;18.3;51.3
54439;BME280;40347;53.848;27.498;2023-05-16T05:51:35;1009.1;;;18.1;51.8
54439;BME280;40347;53.848;27.498;2023-05-16T05:56:33;1009.1;;;18.2;52.1
54439;BME280;40347;53.848;27.498;2023-05-16T06:01:31;1009.2;;;18.2;52.5
54439;BME280;40347;53.848;27.498;2023-05-16T06:06:31;1009.1;;;18.2;52.7
54439;BME280;40347;53.848;27.498;2023-05-16T06:11:19;1009.2;;;18.3;52.4
54439;BME280;40347;53.848;27.498;2023-05-16T06:16:45;1009.2;;;18.2;52.7
54439;BME280;40347;53.848;27.498;2023-05-16T06:21:29;1009.2;;;18.1;53.6
54439;BME280;40347;53.848;27.498;2023-05-16T06:26:37;1009.1;;;17.9;54.4
54439;BME280;40347;53.848;27.498;2023-05-16T06:31:19;1009.1;;;17.8;55.2
54439;BME280;40347;53.848;27.498;2023-05-16T06:36:19;1009.3;;;17.9;55.3
54439;BME280;40347;53.848;27.498;2023-05-16T06:41:19;1009.3;;;18.1;55
54439;BME280;40347;53.848;27.498;2023-05-16T06:46:29;1009.3;;;18.3;54.9
54439;BME280;40347;53.848;27.498;2023-05-16T06:51:29;1009.3;;;18.6;54.9
54439;BME280;40347;53.848;27.498;2023-05-16T06:56:33;1009.4;;;18.7;54.9
54439;BME280;40347;53.848;27.498;2023-05-16T07:01:35;1009.4;;;18.6;54.9
54439;BME280;40347;53.848;27.498;2023-05-16T07:06:19;1009.4;;;18.3;55.9
54439;BME280;40347;53.848;27.498;2023-05-16T07:11:19;1009.4;;;18.1;56.4
54439;BME280;40347;53.848;27.498;2023-05-16T07:16:19;1009.4;;;17.7;58.5
54439;BME280;40347;53.848;27.498;2023-05-16T07:21:19;1009.5;;;17.6;60.2
54439;BME280;40347;53.848;27.498;2023-05-16T07:26:41;1009.6;;;17.5;60.8
54439;BME280;40347;53.848;27.498;2023-05-16T07:31:19;1009.7;;;17.3;61.5
54439;BME280;40347;53.848;27.498;2023-05-16T07:36:33;1009.8;;;17;62.2
54439;BME280;40347;53.848;27.498;2023-05-16T07:41:29;1009.9;;;16.9;62.8
54439;BME280;40347;53.848;27.498;2023-05-16T07:46:29;1009.9;;;16.8;63.6
54439;BME280;40347;53.848;27.498;2023-05-16T07:51:33;1009.8;;;16.8;64.7
54439;BME280;40347;53.848;27.498;2023-05-16T07:56:19;1009.7;;;16.6;64.4
54439;BME280;40347;53.848;27.498;2023-05-16T08:01:29;1009.6;;;16.6;63.9
54439;BME280;40347;53.848;27.498;2023-05-16T08:06:19;1009.5;;;16.6;63.3
54439;BME280;40347;53.848;27.498;2023-05-16T08:11:57;1009.5;;;16.7;63.1
54439;BME280;40347;53.848;27.498;2023-05-16T08:16:37;1009.5;;;16.9;63.3
54439;BME280;40347;53.848;27.498;2023-05-16T08:21:33;1009.5;;;17.2;63.1
54439;BME280;40347;53.848;27.498;2023-05-16T08:26:33;1009.6;;;17.5;62.3
54439;BME280;40347;53.848;27.498;2023-05-16T08:31:29;1009.7;;;17.7;61.9
54439;BME280;40347;53.848;27.498;2023-05-16T08:36:19;1009.7;;;17.8;61.8
54439;BME280;40347;53.848;27.498;2023-05-16T08:41:25;1009.7;;;18.1;60.9
54439;BME280;40347;53.848;27.498;2023-05-16T08:46:21;1009.7;;;18.3;60.1
54439;BME280;40347;53.848;27.498;2023-05-16T08:51:32;1009.7;;;18.3;59.6
54439;BME280;40347;53.848;27.498;2023-05-16T08:56:29;1009.7;;;18.2;59.8
54439;BME280;40347;53.848;27.498;2023-05-16T09:01:25;1009.7;;;18.4;59.2
54439;BME280;40347;53.848;27.498;2023-05-16T09:06:31;1009.8;;;18.4;59.3
54439;BME280;40347;53.848;27.498;2023-05-16T09:11:19;1009.8;;;18.6;58.6
54439;BME280;40347;53.848;27.498;2023-05-16T09:16:33;1009.8;;;18.9;58
54439;BME280;40347;53.848;27.498;2023-05-16T09:21:32;1009.8;;;19.5;57.2
54439;BME280;40347;53.848;27.498;2023-05-16T09:26:19;1009.8;;;20.1;56.1
54439;BME280;40347;53.848;27.498;2023-05-16T09:31:20;1009.7;;;20.4;55.1
54439;BME280;40347;53.848;27.498;2023-05-16T09:36:39;1009.7;;;20.8;54.3
54439;BME280;40347;53.848;27.498;2023-05-16T09:41:32;1009.7;;;21;53.6
54439;BME280;40347;53.848;27.498;2023-05-16T09:46:41;1009.7;;;21;53.3
54439;BME280;40347;53.848;27.498;2023-05-16T09:51:20;1009.7;;;20.8;53.5
54439;BME280;40347;53.848;27.498;2023-05-16T09:56:29;1009.7;;;20.6;53.7
54439;BME280;40347;53.848;27.498;2023-05-16T10:01:33;1009.7;;;20.5;53.6
54439;BME280;40347;53.848;27.498;2023-05-16T10:06:25;1009.7;;;20.5;53.7
54439;BME280;40347;53.848;27.498;2023-05-16T10:11:29;1009.7;;;20.4;53.7
54439;BME280;40347;53.848;27.498;2023-05-16T10:16:20;1009.6;;;20.4;53.8
54439;BME280;40347;53.848;27.498;2023-05-16T10:21:20;1009.6;;;20.3;53.9
54439;BME280;40347;53.848;27.498;2023-05-16T10:26:25;1009.7;;;20.2;54
54439;BME280;40347;53.848;27.498;2023-05-16T10:31:35;1009.8;;;20.1;54.3
54439;BME280;40347;53.848;27.498;2023-05-16T10:36:19;1009.8;;;20.2;54.5
54439;BME280;40347;53.848;27.498;2023-05-16T10:41:33;1009.8;;;20.4;54.3
54439;BME280;40347;53.848;27.498;2023-05-16T10:46:41;1009.8;;;20.6;54.1
54439;BME280;40347;53.848;27.498;2023-05-16T10:51:36;1009.9;;;20.7;54
54439;BME280;40347;53.848;27.498;2023-05-16T10:56:21;1009.9;;;20.6;54.1
54439;BME280;40347;53.848;27.498;2023-05-16T11:01:20;1009.9;;;20.4;54.3
54439;BME280;40347;53.848;27.498;2023-05-16T11:06:34;1010;;;20.2;55
54439;BME280;40347;53.848;27.498;2023-05-16T11:11:41;1009.9;;;20.4;55
54439;BME280;40347;53.848;27.498;2023-05-16T11:16:34;1009.9;;;21;54.4
54439;BME280;40347;53.848;27.498;2023-05-16T11:22:03;1009.8;;;21.9;52.6
54439;BME280;40347;53.848;27.498;2023-05-16T11:26:33;1009.8;;;22.4;51.4
54439;BME280;40347;53.848;27.498;2023-05-16T11:31:19;1009.8;;;22.6;50.6
54439;BME280;40347;53.848;27.498;2023-05-16T11:36:41;1009.8;;;22.8;50.3
54439;BME280;40347;53.848;27.498;2023-05-16T11:41:19;1009.8;;;23;50.1
54439;BME280;40347;53.848;27.498;2023-05-16T11:46:19;1009.8;;;23.3;49.7
54439;BME280;40347;53.848;27.498;2023-05-16T11:51:19;1009.9;;;23.3;49.6
54439;BME280;40347;53.848;27.498;2023-05-16T11:56:31;1009.9;;;23.4;49
54439;BME280;40347;53.848;27.498;2023-05-16T12:01:19;1009.9;;;23.4;49
54439;BME280;40347;53.848;27.498;2023-05-16T12:06:43;1010;;;23.6;49
54439;BME280;40347;53.848;27.498;2023-05-16T12:11:21;1010;;;23.7;48.6
54439;BME280;40347;53.848;27.498;2023-05-16T12:16:19;1010;;;24;48.2
54439;BME280;40347;53.848;27.498;2023-05-16T12:21:19;1010;;;24;47.8
54439;BME280;40347;53.848;27.498;2023-05-16T12:26:31;1010;;;23.7;47.2
54439;BME280;40347;53.848;27.498;2023-05-16T12:31:19;1010;;;23.3;48
54439;BME280;40347;53.848;27.498;2023-05-16T12:36:19;1010.1;;;22.8;48.5
54439;BME280;40347;53.848;27.498;2023-05-16T12:41:20;1010;;;22.8;48.6
54439;BME280;40347;53.848;27.498;2023-05-16T12:46:31;1010.1;;;23.2;48.1
54439;BME280;40347;53.848;27.498;2023-05-16T12:51:47;1010.1;;;23.5;47.8
54439;BME280;40347;53.848;27.498;2023-05-16T12:56:19;1010;;;23.8;47.1
54439;BME280;40347;53.848;27.498;2023-05-16T13:01:30;1010;;;24.1;46.6
54439;BME280;40347;53.848;27.498;2023-05-16T13:06:45;1010;;;24.3;46
54439;BME280;40347;53.848;27.498;2023-05-16T13:11:31;1010;;;24.2;45.7
54439;BME280;40347;53.848;27.498;2023-05-16T13:16:19;1010.1;;;24;45.8
54439;BME280;40347;53.848;27.498;2023-05-16T13:21:29;1010.1;;;23.9;45.9
54439;BME280;40347;53.848;27.498;2023-05-16T13:26:19;1010.2;;;23.7;46.2
54439;BME280;40347;53.848;27.498;2023-05-16T13:31:29;1010.2;;;23.4;46.6
54439;BME280;40347;53.848;27.498;2023-05-16T13:36:19;1010.2;;;23.5;46.9
54439;BME280;40347;53.848;27.498;2023-05-16T13:41:29;1010.2;;;23.5;46.9
54439;BME280;40347;53.848;27.498;2023-05-16T13:46:19;1010.2;;;23.5;46.8
54439;BME280;40347;53.848;27.498;2023-05-16T13:51:19;1010.2;;;23.4;47
54439;BME280;40347;53.848;27.498;2023-05-16T13:56:20;1010.3;;;23.2;47
54439;BME280;40347;53.848;27.498;2023-05-16T14:01:45;1010.3;;;23.1;47.1
54439;BME280;40347;53.848;27.498;2023-05-16T14:06:25;1010.3;;;23.2;47.4
54439;BME280;40347;53.848;27.498;2023-05-16T14:11:29;1010.3;;;23.2;47.4
54439;BME280;40347;53.848;27.498;2023-05-16T14:16:29;1010.3;;;23.5;46.9
54439;BME280;40347;53.848;27.498;2023-05-16T14:21:20;1010.3;;;23.5;46.8
54439;BME280;40347;53.848;27.498;2023-05-16T14:26:29;1010.3;;;23.6;46.7
54439;BME280;40347;53.848;27.498;2023-05-16T14:31:29;1010.3;;;23.4;46.9
54439;BME280;40347;53.848;27.498;2023-05-16T14:36:26;1010.3;;;23.3;47
54439;BME280;40347;53.848;27.498;2023-05-16T14:41:31;1010.4;;;23.3;47.1
54439;BME280;40347;53.848;27.498;2023-05-16T14:46:34;1010.4;;;23.2;47.5
54439;BME280;40347;53.848;27.498;2023-05-16T14:51:20;1010.5;;;23;48.1
54439;BME280;40347;53.848;27.498;2023-05-16T14:56:20;1010.4;;;22.8;48.4
54439;BME280;40347;53.848;27.498;2023-05-16T15:01:20;1010.5;;;22.8;48.4
54439;BME280;40347;53.848;27.498;2023-05-16T15:06:38;1010.4;;;22.9;48.2
54439;BME280;40347;53.848;27.498;2023-05-16T15:11:44;1010.4;;;22.9;48.4
54439;BME280;40347;53.848;27.498;2023-05-16T15:16:46;1010.4;;;22.7;48.7
54439;BME280;40347;53.848;27.498;2023-05-16T15:21:40;1010.5;;;22.5;49.1
54439;BME280;40347;53.848;27.498;2023-05-16T15:26:32;1010.5;;;22.2;49.9
54439;BME280;40347;53.848;27.498;2023-05-16T15:31:32;1010.5;;;22;50.4
54439;BME280;40347;53.848;27.498;2023-05-16T15:36:26;1010.6;;;21.8;50.8
54439;BME280;40347;53.848;27.498;2023-05-16T15:41:20;1010.6;;;21.9;51.2
54439;BME280;40347;53.848;27.498;2023-05-16T15:46:42;1010.6;;;22.2;50.7
54439;BME280;40347;53.848;27.498;2023-05-16T15:51:20;1010.6;;;22.1;50.8
54439;BME280;40347;53.848;27.498;2023-05-16T15:56:20;1010.6;;;21.9;51.4
54439;BME280;40347;53.848;27.498;2023-05-16T16:01:30;1010.6;;;22;51.3
54439;BME280;40347;53.848;27.498;2023-05-16T16:06:20;1010.7;;;22.3;50.8
54439;BME280;40347;53.848;27.498;2023-05-16T16:11:20;1010.7;;;22.6;50.4
54439;BME280;40347;53.848;27.498;2023-05-16T16:16:32;1010.8;;;22.8;50.2
54439;BME280;40347;53.848;27.498;2023-05-16T16:21:20;1010.8;;;22.9;49.9
54439;BME280;40347;53.848;27.498;2023-05-16T16:26:20;1010.7;;;22.8;50.2
54439;BME280;40347;53.848;27.498;2023-05-16T17:01:36;1011;;;21.8;48.4
54439;BME280;40347;53.848;27.498;2023-05-16T17:06:20;1011.1;;;21.6;48.2
54439;BME280;40347;53.848;27.498;2023-05-16T17:11:32;1011.2;;;21.3;48.4
54439;BME280;40347;53.848;27.498;2023-05-16T17:16:20;1011.3;;;20.8;48.9
54439;BME280;40347;53.848;27.498;2023-05-16T17:21:20;1011.3;;;20.5;49.6
54439;BME280;40347;53.848;27.498;2023-05-16T17:26:20;1011.2;;;20.2;50.1
54439;BME280;40347;53.848;27.498;2023-05-16T17:31:30;1011.2;;;19.9;50.5
54439;BME280;40347;53.848;27.498;2023-05-16T17:36:20;1011.2;;;19.7;50.8
54439;BME280;40347;53.848;27.498;2023-05-16T17:41:20;1011.2;;;19.4;51.5
54439;BME280;40347;53.848;27.498;2023-05-16T17:46:20;1011.3;;;19.2;52.3
54439;BME280;40347;53.848;27.498;2023-05-16T17:51:43;1011.4;;;18.9;52.6
54439;BME280;40347;53.848;27.498;2023-05-16T17:56:20;1011.4;;;18.7;53.5
54439;BME280;40347;53.848;27.498;2023-05-16T18:01:52;1011.5;;;18.4;54
54439;BME280;40347;53.848;27.498;2023-05-16T18:06:32;1011.5;;;18.2;54.4
54439;BME280;40347;53.848;27.498;2023-05-16T18:11:33;1011.6;;;17.9;55.4
54439;BME280;40347;53.848;27.498;2023-05-16T18:16:34;1011.6;;;17.7;56.1
54439;BME280;40347;53.848;27.498;2023-05-16T18:21:46;1011.7;;;17.5;56.8
54439;BME280;40347;53.848;27.498;2023-05-16T18:26:20;1011.8;;;17.4;57.5
54439;BME280;40347;53.848;27.498;2023-05-16T18:31:32;1011.8;;;17.3;57.5
54439;BME280;40347;53.848;27.498;2023-05-16T18:36:21;1011.9;;;17.2;57.6
54439;BME280;40347;53.848;27.498;2023-05-16T18:41:20;1011.9;;;17.1;58.1
54439;BME280;40347;53.848;27.498;2023-05-16T18:46:28;1012;;;17;58.4
54439;BME280;40347;53.848;27.498;2023-05-16T18:51:20;1012;;;17;58.6
54439;BME280;40347;53.848;27.498;2023-05-16T18:56:42;1012.1;;;17;58.8
54439;BME280;40347;53.848;27.498;2023-05-16T19:01:34;1012.1;;;17;59.1
54439;BME280;40347;53.848;27.498;2023-05-16T19:06:50;1012.1;;;17;59
54439;BME280;40347;53.848;27.498;2023-05-16T19:11:44;1012.1;;;17.1;59.1
54439;BME280;40347;53.848;27.498;2023-05-16T19:16:46;1012.1;;;17.1;59.1
54439;BME280;40347;53.848;27.498;2023-05-16T19:21:23;1012.1;;;17.1;58.9
54439;BME280;40347;53.848;27.498;2023-05-16T19:26:36;1012.1;;;17.1;59
54439;BME280;40347;53.848;27.498;2023-05-16T19:31:20;1012.1;;;17.1;59
54439;BME280;40347;53.848;27.498;2023-05-16T19:36:37;1012.1;;;17;59.2
54439;BME280;40347;53.848;27.498;2023-05-16T19:41:20;1012.2;;;17;59.6
54439;BME280;40347;53.848;27.498;2023-05-16T19:46:20;1012.2;;;16.8;60.2
54439;BME280;40347;53.848;27.498;2023-05-16T19:51:20;1012.2;;;16.7;60.5
54439;BME280;40347;53.848;27.498;2023-05-16T19:56:20;1012.4;;;16.7;60.7
54439;BME280;40347;53.848;27.498;2023-05-16T20:01:36;1012.4;;;16.5;61
54439;BME280;40347;53.848;27.498;2023-05-16T20:06:20;1012.5;;;16.5;60.4
54439;BME280;40347;53.848;27.498;2023-05-16T20:11:54;1012.5;;;16.5;60.5
54439;BME280;40347;53.848;27.498;2023-05-16T20:16:20;1012.5;;;16.4;60.9
54439;BME280;40347;53.848;27.498;2023-05-16T20:21:32;1012.5;;;16.4;60.7
54439;BME280;40347;53.848;27.498;2023-05-16T20:26:20;1012.5;;;16.3;60.9
54439;BME280;40347;53.848;27.498;2023-05-16T20:31:46;1012.5;;;16.2;61.2
54439;BME280;40347;53.848;27.498;2023-05-16T20:36:20;1012.5;;;16.1;61.4
54439;BME280;40347;53.848;27.498;2023-05-16T20:41:32;1012.6;;;16.1;61.3
54439;BME280;40347;53.848;27.498;2023-05-16T20:46:36;1012.6;;;16.1;61.5
54439;BME280;40347;53.848;27.498;2023-05-16T20:51:30;1012.6;;;16.1;61.2
54439;BME280;40347;53.848;27.498;2023-05-16T20:56:42;1012.6;;;16.1;60.8
54439;BME280;40347;53.848;27.498;2023-05-16T21:01:20;1012.6;;;16;60.9
54439;BME280;40347;53.848;27.498;2023-05-16T21:06:20;1012.5;;;16;60.8
54439;BME280;40347;53.848;27.498;2023-05-16T21:11:27;1012.5;;;16;60.8
54439;BME280;40347;53.848;27.498;2023-05-16T21:16:26;1012.5;;;15.9;60.6
54439;BME280;40347;53.848;27.498;2023-05-16T21:21:30;1012.5;;;15.9;60.4
54439;BME280;40347;53.848;27.498;2023-05-16T21:26:46;1012.5;;;15.8;60.4
54439;BME280;40347;53.848;27.498;2023-05-16T21:31:20;1012.5;;;15.7;60.9
54439;BME280;40347;53.848;27.498;2023-05-16T21:36:20;1012.5;;;15.6;61
54439;BME280;40347;53.848;27.498;2023-05-16T21:41:32;1012.6;;;15.5;61.2
54439;BME280;40347;53.848;27.498;2023-05-16T21:46:40;1012.6;;;15.4;61.1
54439;BME280;40347;53.848;27.498;2023-05-16T21:51:34;1012.7;;;15.3;61.6
54439;BME280;40347;53.848;27.498;2023-05-16T21:56:53;1012.7;;;15.2;62
54439;BME280;40347;53.848;27.498;2023-05-16T22:01:26;1012.7;;;15;62.7
54439;BME280;40347;53.848;27.498;2023-05-16T22:06:34;1012.7;;;15;63
54439;BME280;40347;53.848;27.498;2023-05-16T22:11:32;1012.7;;;14.9;63.2
54439;BME280;40347;53.848;27.498;2023-05-16T22:16:20;1012.8;;;14.8;63.6
54439;BME280;40347;53.848;27.498;2023-05-16T22:21:46;1012.8;;;14.7;63.6
54439;BME280;40347;53.848;27.498;2023-05-16T22:26:20;1012.8;;;14.6;64.2
54439;BME280;40347;53.848;27.498;2023-05-16T22:31:30;1012.8;;;14.5;64.8
54439;BME280;40347;53.848;27.498;2023-05-16T22:36:30;1012.8;;;14.5;64.9
54439;BME280;40347;53.848;27.498;2023-05-16T22:41:32;1012.9;;;14.5;64.7
54439;BME280;40347;53.848;27.498;2023-05-16T22:46:42;1012.9;;;14.4;65.1
54439;BME280;40347;53.848;27.498;2023-05-16T22:51:20;1012.9;;;14.4;65.2
54439;BME280;40347;53.848;27.498;2023-05-16T22:57:06;1012.9;;;14.4;65.3
54439;BME280;40347;53.848;27.498;2023-05-16T23:01:46;1012.9;;;14.4;65.7
54439;BME280;40347;53.848;27.498;2023-05-16T23:06:38;1012.9;;;14.3;66
54439;BME280;40347;53.848;27.498;2023-05-16T23:11:36;1012.9;;;14.4;66.2
54439;BME280;40347;53.848;27.498;2023-05-16T23:16:34;1012.9;;;14.3;66.5
54439;BME280;40347;53.848;27.498;2023-05-16T23:21:44;1012.9;;;14.2;66.6
54439;BME280;40347;53.848;27.498;2023-05-16T23:26:32;1013;;;14.3;66.9
54439;BME280;40347;53.848;27.498;2023-05-16T23:31:20;1013;;;14.2;67.5
54439;BME280;40347;53.848;27.498;2023-05-16T23:36:32;1013;;;14.3;67.4
54439;BME280;40347;53.848;27.498;2023-05-16T23:41:30;1013;;;14.4;67
54439;BME280;40347;53.848;27.498;2023-05-16T23:46:40;1013;;;14.5;66.6
54439;BME280;40347;53.848;27.498;2023-05-16T23:51:32;1013;;;14.4;66.8
54439;BME280;40347;53.848;27.498;2023-05-16T23:56:30;1013.1;;;14.4;67
